Time;durP1;ratioP1;P1;durP2;ratioP2;P2;SDS_P1;SDS_P2;PMS_P1;PMS_P2;Temp;Humidity;BMP_temperature;BMP_pressure;BME280_temperature;BME280_humidity;BME280_pressure;Samples;Min_cycle;Max_cycle;Signal;HPM_P1;HPM_P2
2022/08/20 00:01:03;;;;;;;1.75;0.70;;;21.40;99.90;;;;;;4896918;29;20032;-89
2022/08/20 00:03:39;;;;;;;1.67;0.70;;;21.40;99.90;;;;;;4913856;29;20021;-89
2022/08/20 00:06:17;;;;;;;2.45;0.70;;;21.30;99.90;;;;;;4896974;29;20048;-89
2022/08/20 00:08:44;;;;;;;3.22;0.77;;;21.30;99.90;;;;;;4878345;29;20016;-89
2022/08/20 00:11:14;;;;;;;1.25;0.80;;;21.20;99.90;;;;;;4905251;29;20489;-90
2022/08/20 00:13:43;;;;;;;2.83;0.80;;;21.10;99.90;;;;;;4913684;29;20024;-89
2022/08/20 00:16:10;;;;;;;2.83;0.70;;;21.10;99.90;;;;;;4917830;29;20016;-89
2022/08/20 00:18:37;;;;;;;1.08;0.63;;;21.20;99.90;;;;;;4900541;29;20092;-90
2022/08/20 00:21:06;;;;;;;1.15;0.63;;;21.30;99.90;;;;;;4917650;29;20076;-90
2022/08/20 00:23:34;;;;;;;3.38;0.82;;;21.30;99.90;;;;;;4917299;29;20020;-90
2022/08/20 00:26:00;;;;;;;2.80;0.77;;;21.30;99.90;;;;;;4917110;29;20364;-89
2022/08/20 00:28:25;;;;;;;3.10;0.80;;;21.40;99.90;;;;;;4917377;29;20111;-90
2022/08/20 00:30:51;;;;;;;1.65;0.75;;;21.40;99.90;;;;;;4917331;29;20032;-90
2022/08/20 00:33:20;;;;;;;2.25;0.80;;;21.50;99.90;;;;;;4917385;29;20030;-90
2022/08/20 00:35:48;;;;;;;1.90;0.70;;;21.60;99.90;;;;;;4917564;29;20507;-89
2022/08/20 00:38:14;;;;;;;1.38;0.65;;;21.60;99.90;;;;;;4900157;29;20020;-90
2022/08/20 00:40:47;;;;;;;0.73;0.50;;;21.60;99.90;;;;;;4900545;29;20588;-90
2022/08/20 00:43:37;;;;;;;1.75;0.50;;;21.60;99.90;;;;;;4916802;29;20039;-90
2022/08/20 00:46:26;;;;;;;1.63;0.40;;;21.50;99.90;;;;;;4916837;29;20039;-90
2022/08/20 00:48:55;;;;;;;0.55;0.28;;;21.50;99.90;;;;;;4916658;29;20514;-90
2022/08/20 00:51:26;;;;;;;3.10;0.82;;;21.50;99.90;;;;;;4899759;29;20032;-90
2022/08/20 00:54:02;;;;;;;1.45;0.30;;;21.40;99.90;;;;;;4917427;29;20043;-89
2022/08/20 00:56:32;;;;;;;1.38;0.40;;;21.40;99.90;;;;;;4917321;29;20036;-90
2022/08/20 00:58:58;;;;;;;0.95;0.40;;;21.40;99.90;;;;;;4900368;29;20597;-90
2022/08/20 01:01:24;;;;;;;1.30;0.50;;;21.40;99.90;;;;;;4917329;29;20023;-90
2022/08/20 01:03:54;;;;;;;1.63;0.40;;;21.40;99.90;;;;;;4923940;29;20555;-90
2022/08/20 01:06:20;;;;;;;1.80;0.40;;;21.40;99.90;;;;;;4930029;29;20036;-89
2022/08/20 01:08:46;;;;;;;1.60;0.40;;;21.40;99.90;;;;;;4924539;29;20016;-90
2022/08/20 01:11:15;;;;;;;1.13;0.60;;;21.50;99.90;;;;;;4922350;29;20063;-89
2022/08/20 01:13:43;;;;;;;1.27;0.50;;;21.40;99.90;;;;;;4924652;29;20610;-90
2022/08/20 01:16:18;;;;;;;1.25;0.40;;;21.40;99.90;;;;;;4923310;29;20133;-89
2022/08/20 01:18:47;;;;;;;0.77;0.40;;;21.30;99.90;;;;;;4923280;29;20477;-90
2022/08/20 01:21:13;;;;;;;1.92;0.47;;;21.30;99.90;;;;;;4925385;29;20106;-90
2022/08/20 01:23:43;;;;;;;3.78;0.55;;;21.30;99.90;;;;;;4922227;29;20028;-90
2022/08/20 01:26:14;;;;;;;1.08;0.40;;;21.40;99.90;;;;;;4898776;29;20041;-90
2022/08/20 01:28:43;;;;;;;1.77;0.55;;;21.40;99.90;;;;;;4922845;29;20028;-89
2022/08/20 01:31:17;;;;;;;1.58;0.65;;;21.40;99.90;;;;;;4897989;29;20544;-90
2022/08/20 01:33:44;;;;;;;3.00;0.50;;;21.40;99.90;;;;;;4900044;29;20024;-90
2022/08/20 01:36:10;;;;;;;3.22;0.40;;;21.40;99.90;;;;;;4916439;29;20036;-90
2022/08/20 01:38:37;;;;;;;2.10;0.40;;;21.30;99.90;;;;;;4916319;29;20027;-90
2022/08/20 01:41:25;;;;;;;1.15;0.55;;;21.20;99.90;;;;;;4916321;29;20043;-89
2022/08/20 01:43:55;;;;;;;3.42;0.40;;;21.30;99.90;;;;;;4917012;29;20032;-89
2022/08/20 01:46:40;;;;;;;1.42;0.40;;;21.20;99.90;;;;;;4915802;29;20063;-90
2022/08/20 01:49:23;;;;;;;0.63;0.40;;;21.30;99.90;;;;;;4899154;29;20060;-89
2022/08/20 01:51:52;;;;;;;0.93;0.60;;;21.20;99.90;;;;;;4915814;29;20032;-90
2022/08/20 01:54:17;;;;;;;1.33;0.60;;;21.30;99.90;;;;;;4916036;29;20043;-90
2022/08/20 01:57:09;;;;;;;1.20;0.40;;;21.30;99.90;;;;;;4915907;29;20032;-90
2022/08/20 01:59:35;;;;;;;1.42;0.50;;;21.30;99.90;;;;;;4915906;29;20028;-89
2022/08/20 02:02:01;;;;;;;1.42;0.43;;;21.40;99.90;;;;;;4915660;29;20541;-89
2022/08/20 02:04:27;;;;;;;1.23;0.60;;;21.30;99.90;;;;;;4915536;29;20036;-90
2022/08/20 02:07:00;;;;;;;1.13;0.50;;;21.30;99.90;;;;;;4898333;29;20099;-90
2022/08/20 02:09:28;;;;;;;1.58;0.68;;;21.30;99.90;;;;;;4915518;29;20032;-90
2022/08/20 02:11:56;;;;;;;1.65;0.80;;;21.10;99.90;;;;;;4884990;29;20035;-89
2022/08/20 02:14:22;;;;;;;1.92;0.47;;;21.00;99.90;;;;;;4914438;29;20024;-90
2022/08/20 02:16:49;;;;;;;1.15;0.50;;;21.00;99.90;;;;;;4915648;29;20039;-89
2022/08/20 02:19:26;;;;;;;1.13;0.30;;;20.90;99.90;;;;;;4898997;29;20083;-90
2022/08/20 02:21:55;;;;;;;2.13;0.50;;;20.90;99.90;;;;;;4915690;29;20485;-90
2022/08/20 02:24:22;;;;;;;1.95;0.43;;;20.90;99.90;;;;;;4898178;29;20028;-90
2022/08/20 02:26:49;;;;;;;1.17;0.32;;;21.00;99.90;;;;;;4895448;29;20044;-89
2022/08/20 02:29:15;;;;;;;1.48;0.30;;;21.00;99.90;;;;;;4915091;29;20029;-89
2022/08/20 02:31:43;;;;;;;4.10;0.70;;;21.00;99.90;;;;;;4898003;29;20024;-89
2022/08/20 02:34:11;;;;;;;1.90;0.63;;;21.00;99.90;;;;;;4915077;29;20035;-89
2022/08/20 02:36:38;;;;;;;1.15;0.50;;;21.00;99.90;;;;;;4915155;29;20029;-89
2022/08/20 02:39:06;;;;;;;2.47;0.55;;;21.00;99.90;;;;;;4897787;29;20497;-90
2022/08/20 02:41:33;;;;;;;1.63;0.80;;;20.90;99.90;;;;;;4914973;29;20019;-90
2022/08/20 02:43:59;;;;;;;1.42;0.60;;;21.00;99.90;;;;;;4898066;29;20038;-90
2022/08/20 02:46:27;;;;;;;3.60;0.80;;;20.90;99.90;;;;;;4880936;29;20037;-90
2022/08/20 02:48:53;;;;;;;3.35;0.70;;;20.90;99.90;;;;;;4905783;29;20016;-89
2022/08/20 02:51:19;;;;;;;1.70;0.70;;;20.90;99.90;;;;;;4914546;29;20111;-89
2022/08/20 02:53:44;;;;;;;2.90;0.63;;;20.80;99.90;;;;;;4915175;29;20100;-89
2022/08/20 02:56:10;;;;;;;2.58;0.60;;;20.80;99.90;;;;;;4897898;29;20139;-89
2022/08/20 02:58:37;;;;;;;1.40;0.70;;;20.90;99.90;;;;;;4914841;29;20020;-89
2022/08/20 03:01:06;;;;;;;2.92;0.88;;;20.90;99.90;;;;;;4914922;29;20032;-90
2022/08/20 03:03:33;;;;;;;1.70;0.50;;;21.00;99.90;;;;;;4914781;29;20099;-90
2022/08/20 03:05:59;;;;;;;2.08;0.80;;;21.00;99.90;;;;;;4913997;29;20409;-90
2022/08/20 03:08:28;;;;;;;1.73;0.50;;;21.00;99.90;;;;;;4914119;29;20032;-89
2022/08/20 03:10:54;;;;;;;1.60;0.68;;;20.90;99.90;;;;;;4914233;29;20024;-90
2022/08/20 03:13:22;;;;;;;2.58;0.60;;;20.90;99.90;;;;;;4912775;29;20115;-89
2022/08/20 03:15:53;;;;;;;1.83;0.70;;;20.90;99.90;;;;;;4914676;29;20016;-89
2022/08/20 03:18:19;;;;;;;2.25;0.73;;;20.80;99.90;;;;;;4914285;29;20048;-89
2022/08/20 03:20:46;;;;;;;1.70;0.80;;;20.70;99.90;;;;;;4897313;29;20095;-89
2022/08/20 03:23:13;;;;;;;3.28;1.33;;;20.70;99.90;;;;;;4884876;29;20021;-90
2022/08/20 03:25:38;;;;;;;5.68;1.90;;;20.60;99.90;;;;;;4913273;29;20486;-89
2022/08/20 03:28:05;;;;;;;4.75;1.98;;;20.70;99.90;;;;;;4924714;29;20027;-89
2022/08/20 03:30:31;;;;;;;3.05;1.10;;;20.70;99.90;;;;;;4922044;29;20024;-90
2022/08/20 03:32:58;;;;;;;1.83;1.17;;;20.70;99.90;;;;;;4930924;29;20056;-89
2022/08/20 03:35:27;;;;;;;2.20;0.90;;;20.80;99.90;;;;;;4913863;29;20032;-89
2022/08/20 03:37:54;;;;;;;2.42;0.80;;;20.80;99.90;;;;;;4913678;29;20481;-90
2022/08/20 03:40:27;;;;;;;2.63;0.75;;;20.80;99.90;;;;;;4914248;29;20087;-89
2022/08/20 03:42:53;;;;;;;2.60;1.10;;;20.80;99.90;;;;;;4914026;29;20032;-90
2022/08/20 03:45:20;;;;;;;1.42;0.70;;;20.90;99.90;;;;;;4914128;29;20088;-89
2022/08/20 03:47:47;;;;;;;2.22;0.70;;;20.90;99.90;;;;;;4913938;29;20032;-90
2022/08/20 03:50:13;;;;;;;2.58;0.80;;;20.90;99.90;;;;;;4896554;29;20481;-90
2022/08/20 03:52:39;;;;;;;2.33;0.80;;;20.90;99.90;;;;;;4914102;29;20038;-89
2022/08/20 03:55:07;;;;;;;2.92;0.82;;;20.90;99.90;;;;;;4913736;29;20059;-90
2022/08/20 03:57:34;;;;;;;1.65;0.90;;;20.90;99.90;;;;;;4913812;29;20020;-90
2022/08/20 04:00:00;;;;;;;2.15;0.90;;;20.90;99.90;;;;;;4913611;29;20016;-89
2022/08/20 04:02:27;;;;;;;2.58;0.90;;;20.90;99.90;;;;;;4913895;29;20055;-89
2022/08/20 04:04:53;;;;;;;2.50;0.73;;;20.90;99.90;;;;;;4913671;29;20052;-89
2022/08/20 04:07:26;;;;;;;3.25;1.05;;;20.90;99.90;;;;;;4889352;29;20048;-89
2022/08/20 04:09:56;;;;;;;1.52;0.80;;;20.90;99.90;;;;;;4907737;29;20067;-90
2022/08/20 04:12:24;;;;;;;3.67;1.27;;;21.00;99.90;;;;;;4913808;29;20032;-89
2022/08/20 04:14:51;;;;;;;3.28;0.95;;;21.00;99.90;;;;;;4913553;29;20024;-89
2022/08/20 04:17:18;;;;;;;1.95;1.10;;;21.00;99.90;;;;;;4900714;29;20032;-89
2022/08/20 04:19:44;;;;;;;5.28;2.17;;;21.00;99.90;;;;;;4914034;29;20051;-90
2022/08/20 04:22:13;;;;;;;3.35;1.88;;;21.10;99.90;;;;;;4913655;29;20024;-89
2022/08/20 04:24:41;;;;;;;2.35;1.30;;;21.10;99.90;;;;;;4896623;29;20032;-89
2022/08/20 04:27:08;;;;;;;3.17;1.27;;;21.10;99.90;;;;;;4896690;29;20032;-89
2022/08/20 04:29:35;;;;;;;2.40;0.80;;;21.10;99.90;;;;;;4913668;29;20028;-90
2022/08/20 04:32:03;;;;;;;2.17;0.80;;;21.10;99.90;;;;;;4913679;29;20024;-89
2022/08/20 04:34:29;;;;;;;1.70;0.90;;;21.20;99.90;;;;;;4913359;29;20020;-90
2022/08/20 04:36:55;;;;;;;4.53;0.85;;;21.10;99.90;;;;;;4913653;29;20032;-90
2022/08/20 04:39:21;;;;;;;3.10;0.70;;;21.10;99.90;;;;;;4883402;29;20039;-89
2022/08/20 04:41:46;;;;;;;2.47;0.98;;;21.10;99.90;;;;;;4913645;29;20412;-89
2022/08/20 04:44:12;;;;;;;2.88;1.20;;;21.10;99.90;;;;;;4913572;29;20036;-90
2022/08/20 04:46:38;;;;;;;3.60;1.00;;;21.10;99.90;;;;;;4893590;29;20557;-89
2022/08/20 04:49:06;;;;;;;1.73;0.90;;;21.00;99.90;;;;;;4906000;29;20035;-89
2022/08/20 04:51:32;;;;;;;3.65;1.00;;;21.00;99.90;;;;;;4896522;29;20085;-90
2022/08/20 04:53:59;;;;;;;3.92;0.90;;;21.00;99.90;;;;;;4913376;29;20036;-89
2022/08/20 04:56:28;;;;;;;4.60;1.17;;;20.90;99.90;;;;;;4913474;29;20020;-89
2022/08/20 04:58:57;;;;;;;6.35;0.95;;;20.90;99.90;;;;;;4896348;29;20060;-90
2022/08/20 05:01:24;;;;;;;4.60;1.10;;;20.90;99.90;;;;;;4897852;29;20704;-90
2022/08/20 05:03:53;;;;;;;4.60;0.80;;;21.00;99.90;;;;;;4917051;29;20047;-89
2022/08/20 05:06:19;;;;;;;5.65;1.58;;;21.00;99.90;;;;;;4917279;29;20064;-90
2022/08/20 05:08:45;;;;;;;4.60;1.30;;;20.80;99.90;;;;;;4903786;29;20028;-90
2022/08/20 05:11:13;;;;;;;10.88;2.22;;;20.90;99.90;;;;;;4915539;29;20536;-89
2022/08/20 05:13:39;;;;;;;4.93;1.98;;;20.90;99.90;;;;;;4916826;29;20032;-89
2022/08/20 05:16:05;;;;;;;6.95;2.13;;;20.80;99.90;;;;;;4917012;29;20028;-90
2022/08/20 05:18:33;;;;;;;4.28;1.83;;;20.90;99.90;;;;;;4899778;29;20473;-89
2022/08/20 05:21:06;;;;;;;2.42;1.45;;;20.80;99.90;;;;;;4916999;29;20095;-89
2022/08/20 05:23:35;;;;;;;5.07;2.25;;;20.80;99.90;;;;;;4916231;29;20033;-90
2022/08/20 05:26:04;;;;;;;3.70;1.88;;;20.90;99.90;;;;;;4916091;29;20088;-89
2022/08/20 05:28:31;;;;;;;5.30;2.00;;;20.90;99.90;;;;;;4916161;29;20504;-89
2022/08/20 05:30:58;;;;;;;4.22;2.03;;;20.90;99.90;;;;;;4916214;29;20524;-90
2022/08/20 05:33:24;;;;;;;5.05;1.75;;;21.00;99.90;;;;;;4916235;29;20477;-90
2022/08/20 05:35:51;;;;;;;8.27;1.75;;;21.10;99.90;;;;;;4916840;29;20052;-88
2022/08/20 05:38:19;;;;;;;4.75;1.73;;;21.10;99.90;;;;;;4917132;29;20164;-89
2022/08/20 05:40:47;;;;;;;4.07;1.67;;;21.10;99.90;;;;;;4918385;29;20072;-89
2022/08/20 05:43:13;;;;;;;4.43;1.50;;;21.20;99.90;;;;;;4925436;29;20332;-89
2022/08/20 05:45:41;;;;;;;5.88;1.80;;;21.10;99.90;;;;;;4927474;29;20068;-89
2022/08/20 05:48:13;;;;;;;5.28;1.85;;;21.10;99.90;;;;;;4905674;29;20035;-90
2022/08/20 05:50:41;;;;;;;7.90;1.83;;;21.20;99.90;;;;;;4927127;29;20028;-89
2022/08/20 05:53:07;;;;;;;5.85;1.70;;;21.20;99.90;;;;;;4921970;29;20051;-89
2022/08/20 05:55:36;;;;;;;7.53;1.73;;;21.30;99.90;;;;;;4926983;29;20016;-89
2022/08/20 05:58:06;;;;;;;5.32;1.23;;;21.30;99.90;;;;;;4910022;29;20031;-89
2022/08/20 06:00:34;;;;;;;5.53;1.48;;;21.30;99.90;;;;;;4926517;29;20083;-89
2022/08/20 06:05:44;;;;;;;7.22;1.83;;;21.40;99.90;;;;;;4919950;29;20054;-89
2022/08/20 06:08:11;;;;;;;4.85;1.35;;;21.50;99.90;;;;;;4889606;29;20123;-90
2022/08/20 06:10:38;;;;;;;2.97;1.15;;;21.50;99.90;;;;;;4901499;29;20032;-90
2022/08/20 06:13:04;;;;;;;4.97;1.45;;;21.60;99.90;;;;;;4916226;29;20063;-89
2022/08/20 06:15:31;;;;;;;6.88;1.20;;;21.70;99.90;;;;;;4916564;29;20036;-89
2022/08/20 06:17:57;;;;;;;7.78;1.60;;;21.70;99.90;;;;;;4904549;29;20024;-89
2022/08/20 06:20:24;;;;;;;9.32;1.60;;;21.80;99.90;;;;;;4919950;29;20028;-89
2022/08/20 06:22:49;;;;;;;8.27;1.60;;;21.80;99.90;;;;;;4916735;29;20035;-89
2022/08/20 06:25:15;;;;;;;5.35;1.00;;;21.90;99.90;;;;;;4917677;29;20326;-89
2022/08/20 06:27:42;;;;;;;9.02;1.20;;;21.90;99.90;;;;;;4921720;29;20032;-89
2022/08/20 06:30:10;;;;;;;7.63;1.52;;;21.90;99.90;;;;;;4918496;29;20020;-89
2022/08/20 06:32:36;;;;;;;4.88;1.30;;;21.90;99.90;;;;;;4920534;29;20339;-89
2022/08/20 06:35:05;;;;;;;7.00;1.17;;;22.00;99.90;;;;;;4926282;29;20012;-89
2022/08/20 06:37:35;;;;;;;4.15;1.17;;;22.00;99.90;;;;;;4925934;29;20028;-90
2022/08/20 06:40:10;;;;;;;6.25;1.38;;;22.10;99.90;;;;;;4925714;29;20008;-89
2022/08/20 06:42:42;;;;;;;4.22;1.10;;;22.20;99.90;;;;;;4924943;29;20035;-89
2022/08/20 06:45:09;;;;;;;6.82;1.33;;;22.30;99.90;;;;;;4926410;29;20038;-89
2022/08/20 06:47:42;;;;;;;3.13;1.17;;;22.30;99.90;;;;;;4908488;29;20253;-89
2022/08/20 06:50:15;;;;;;;3.47;1.10;;;22.40;99.90;;;;;;4925738;29;20026;-89
2022/08/20 06:52:42;;;;;;;2.92;0.80;;;22.40;99.90;;;;;;4919158;29;20107;-89
2022/08/20 06:55:09;;;;;;;2.90;0.90;;;22.50;99.90;;;;;;4908364;29;20320;-90
2022/08/20 06:57:36;;;;;;;2.83;0.77;;;22.50;99.90;;;;;;4915181;29;20075;-89
2022/08/20 07:00:18;;;;;;;4.18;1.10;;;22.60;99.90;;;;;;4914635;29;20024;-89
2022/08/20 07:02:45;;;;;;;3.58;0.95;;;22.70;99.90;;;;;;4914965;29;20589;-89
2022/08/20 07:05:11;;;;;;;3.40;0.95;;;22.80;99.90;;;;;;4897225;29;20537;-88
2022/08/20 07:07:37;;;;;;;3.22;0.95;;;22.90;99.90;;;;;;4914506;29;20043;-89
2022/08/20 07:10:10;;;;;;;2.38;0.70;;;23.00;99.90;;;;;;4913304;29;20445;-89
2022/08/20 07:12:36;;;;;;;3.80;1.10;;;23.00;99.90;;;;;;4931215;29;20024;-89
2022/08/20 07:15:08;;;;;;;4.47;1.02;;;23.00;99.90;;;;;;4916964;29;20020;-88
2022/08/20 07:17:35;;;;;;;4.57;1.10;;;23.00;99.90;;;;;;4933756;29;20066;-88
2022/08/20 07:20:07;;;;;;;4.32;1.10;;;22.90;99.90;;;;;;4909664;29;20028;-89
2022/08/20 07:22:36;;;;;;;4.07;0.90;;;23.00;99.90;;;;;;4890261;29;20452;-89
2022/08/20 07:25:07;;;;;;;4.22;1.42;;;23.10;99.90;;;;;;4920215;29;20442;-89
2022/08/20 07:27:33;;;;;;;4.40;1.25;;;23.10;99.90;;;;;;4930542;29;20032;-89
2022/08/20 07:32:45;;;;;;;4.50;1.08;;;23.10;99.90;;;;;;4914383;29;20457;-88
2022/08/20 07:35:13;;;;;;;3.67;1.13;;;23.20;99.90;;;;;;4914647;29;20501;-88
2022/08/20 07:37:41;;;;;;;4.65;1.23;;;23.20;99.90;;;;;;4914178;29;20024;-86
2022/08/20 07:40:10;;;;;;;3.22;1.13;;;23.20;99.90;;;;;;4913850;29;20029;-87
2022/08/20 07:42:38;;;;;;;5.22;1.30;;;23.30;99.90;;;;;;4914526;29;20031;-87
2022/08/20 07:45:06;;;;;;;2.38;1.20;;;23.40;99.90;;;;;;4917057;29;20071;-86
2022/08/20 07:47:34;;;;;;;3.85;1.20;;;23.40;99.90;;;;;;4913861;29;20044;-87
2022/08/20 07:50:01;;;;;;;5.28;0.95;;;23.50;99.90;;;;;;4915216;29;20047;-87
2022/08/20 07:52:26;;;;;;;2.95;1.08;;;23.50;99.90;;;;;;4913795;29;20166;-86
2022/08/20 07:54:52;;;;;;;3.22;0.70;;;23.40;99.90;;;;;;4913853;29;20165;-87
2022/08/20 07:57:18;;;;;;;3.83;1.15;;;23.20;99.90;;;;;;4914048;29;20047;-87
2022/08/20 07:59:45;;;;;;;1.98;0.85;;;23.00;99.90;;;;;;4916303;29;20137;-87
2022/08/20 08:02:11;;;;;;;4.47;0.85;;;22.90;99.90;;;;;;4915686;29;20024;-87
2022/08/20 08:04:37;;;;;;;3.38;1.25;;;22.90;99.90;;;;;;4917956;29;20056;-87
2022/08/20 08:07:04;;;;;;;4.43;0.98;;;22.90;99.90;;;;;;4914327;29;20076;-87
2022/08/20 08:09:32;;;;;;;3.72;1.40;;;22.70;99.90;;;;;;4914276;29;20052;-87
2022/08/20 08:12:01;;;;;;;6.65;1.35;;;22.50;99.90;;;;;;4914165;29;20032;-87
2022/08/20 08:14:30;;;;;;;6.60;1.50;;;22.40;99.90;;;;;;4917231;29;20031;-87
2022/08/20 08:16:58;;;;;;;7.57;1.95;;;22.40;99.90;;;;;;4917728;29;20028;-87
2022/08/20 08:19:27;;;;;;;5.88;2.00;;;22.30;99.90;;;;;;4916216;29;20032;-87
2022/08/20 08:21:55;;;;;;;7.60;1.42;;;22.30;99.90;;;;;;4919100;29;20028;-87
2022/08/20 08:24:20;;;;;;;13.63;1.83;;;22.40;99.90;;;;;;4889137;29;20235;-87
2022/08/20 08:26:48;;;;;;;10.82;2.00;;;22.60;99.90;;;;;;4908236;29;20262;-87
2022/08/20 08:29:15;;;;;;;6.28;1.70;;;22.70;99.90;;;;;;4915296;29;20047;-86
2022/08/20 08:31:41;;;;;;;7.80;1.73;;;23.00;99.90;;;;;;4918167;29;20095;-87
2022/08/20 08:34:07;;;;;;;3.55;1.70;;;22.90;99.90;;;;;;4915877;29;20048;-86
2022/08/20 08:36:33;;;;;;;3.95;1.63;;;22.80;99.90;;;;;;4916911;29;20497;-87
2022/08/20 08:38:59;;;;;;;7.70;1.38;;;22.80;99.90;;;;;;4917034;29;20036;-86
2022/08/20 08:41:48;;;;;;;8.80;1.50;;;23.10;99.90;;;;;;4916835;29;20016;-87
2022/08/20 08:44:25;;;;;;;5.55;1.45;;;23.10;99.90;;;;;;4886674;29;20028;-87
2022/08/20 08:46:59;;;;;;;6.40;1.33;;;23.20;99.90;;;;;;4916943;29;20038;-86
2022/08/20 08:49:34;;;;;;;5.13;0.97;;;23.30;99.90;;;;;;4917317;29;20493;-86
2022/08/20 08:52:14;;;;;;;3.40;1.17;;;23.40;99.90;;;;;;4917166;29;20076;-88
2022/08/20 08:54:46;;;;;;;2.78;1.00;;;23.50;99.90;;;;;;4900258;29;20030;-87
2022/08/20 08:57:11;;;;;;;4.40;1.10;;;23.50;99.90;;;;;;4916882;29;20084;-87
2022/08/20 08:59:39;;;;;;;2.58;0.80;;;23.50;99.90;;;;;;4917683;29;20036;-88
2022/08/20 09:02:05;;;;;;;3.75;1.20;;;23.50;99.90;;;;;;4897271;29;20024;-87
2022/08/20 09:04:38;;;;;;;2.92;1.00;;;23.60;99.90;;;;;;4914518;29;20101;-87
2022/08/20 09:07:09;;;;;;;4.45;1.13;;;23.50;99.90;;;;;;4904932;29;20072;-88
2022/08/20 09:09:38;;;;;;;2.40;0.90;;;23.30;99.90;;;;;;4920692;29;20031;-88
2022/08/20 09:12:07;;;;;;;5.60;1.13;;;23.40;99.90;;;;;;4919996;29;20036;-86
2022/08/20 09:14:33;;;;;;;6.38;1.20;;;23.60;99.90;;;;;;4918459;29;20461;-86
2022/08/20 09:16:59;;;;;;;4.00;1.30;;;23.70;99.90;;;;;;4916145;29;20035;-86
2022/08/20 09:19:25;;;;;;;5.35;1.30;;;23.50;99.90;;;;;;4918770;29;20028;-87
2022/08/20 09:21:50;;;;;;;3.65;1.23;;;23.50;99.90;;;;;;4920407;29;20020;-86
2022/08/20 09:24:16;;;;;;;3.13;0.85;;;23.60;99.90;;;;;;4929109;29;20111;-85
2022/08/20 09:26:42;;;;;;;2.97;0.82;;;23.70;99.90;;;;;;4933487;29;20040;-87
2022/08/20 09:29:09;;;;;;;4.93;1.15;;;23.70;99.90;;;;;;4931837;29;20481;-88
2022/08/20 09:31:35;;;;;;;2.70;1.02;;;24.00;99.90;;;;;;4918502;29;20024;-89
2022/08/20 09:34:00;;;;;;;2.33;0.90;;;24.00;99.90;;;;;;4921153;29;20020;-87
2022/08/20 09:36:26;;;;;;;3.58;0.60;;;24.20;99.90;;;;;;4901825;29;20083;-86
2022/08/20 09:38:53;;;;;;;3.45;0.60;;;24.50;99.90;;;;;;4917807;29;20016;-87
2022/08/20 09:41:19;;;;;;;1.88;0.60;;;24.90;99.90;;;;;;4897353;29;20401;-87
2022/08/20 09:43:46;;;;;;;2.38;0.88;;;24.80;99.90;;;;;;4908929;29;20044;-87
2022/08/20 09:46:11;;;;;;;1.25;0.60;;;24.80;99.90;;;;;;4925508;29;20059;-87
2022/08/20 09:48:37;;;;;;;2.40;0.50;;;24.50;99.90;;;;;;4922718;29;20028;-86
2022/08/20 09:51:03;;;;;;;2.97;0.70;;;24.40;99.90;;;;;;4917220;29;20028;-87
2022/08/20 09:53:30;;;;;;;1.88;0.52;;;24.20;99.90;;;;;;4915943;29;20055;-86
2022/08/20 09:55:57;;;;;;;0.50;0.38;;;24.10;99.90;;;;;;4916198;29;20032;-86
2022/08/20 09:58:41;;;;;;;2.42;0.60;;;24.30;99.90;;;;;;4915546;29;20019;-87
2022/08/20 10:01:10;;;;;;;1.05;0.40;;;24.60;99.90;;;;;;4915913;29;20039;-88
2022/08/20 10:03:36;;;;;;;2.45;0.50;;;24.90;99.90;;;;;;4916062;29;20390;-87
2022/08/20 10:06:01;;;;;;;1.15;0.45;;;24.90;99.90;;;;;;4887581;29;20092;-87
2022/08/20 10:08:27;;;;;;;2.78;0.65;;;25.10;99.90;;;;;;4913247;29;20107;-86
2022/08/20 10:10:53;;;;;;;2.35;0.85;;;25.20;99.90;;;;;;4915801;29;20082;-86
2022/08/20 10:13:19;;;;;;;3.78;0.73;;;25.10;99.90;;;;;;4915513;29;20051;-86
2022/08/20 10:15:44;;;;;;;2.90;0.93;;;24.80;99.90;;;;;;4915742;29;20064;-86
2022/08/20 10:18:10;;;;;;;1.90;0.60;;;24.70;99.90;;;;;;4916148;29;20031;-87
2022/08/20 10:20:36;;;;;;;2.97;0.57;;;25.00;99.90;;;;;;4916527;29;20024;-87
2022/08/20 10:23:02;;;;;;;0.98;0.30;;;24.90;99.90;;;;;;4915884;29;20028;-86
2022/08/20 10:25:28;;;;;;;2.10;0.47;;;24.70;99.90;;;;;;4915588;29;20119;-87
2022/08/20 10:27:54;;;;;;;2.80;0.60;;;24.50;99.90;;;;;;4915666;29;20099;-86
2022/08/20 10:30:20;;;;;;;4.25;0.43;;;24.60;99.90;;;;;;4915697;29;20508;-86
2022/08/20 10:32:46;;;;;;;2.35;0.40;;;24.40;99.90;;;;;;4915305;29;20048;-87
2022/08/20 10:35:12;;;;;;;0.82;0.38;;;24.40;99.90;;;;;;4915750;29;20405;-87
2022/08/20 10:37:38;;;;;;;1.92;0.85;;;24.30;99.90;;;;;;4898120;29;20628;-87
2022/08/20 10:40:05;;;;;;;2.75;0.93;;;24.20;99.90;;;;;;4915195;29;20280;-87
2022/08/20 10:42:31;;;;;;;2.45;0.70;;;24.20;99.90;;;;;;4915195;29;20028;-88
2022/08/20 10:44:57;;;;;;;1.92;0.80;;;24.30;99.90;;;;;;4915650;29;20358;-87
2022/08/20 10:47:30;;;;;;;1.17;0.57;;;24.40;99.90;;;;;;4915374;29;20493;-87
2022/08/20 10:49:58;;;;;;;1.70;0.75;;;24.50;99.90;;;;;;4915546;29;20080;-87
2022/08/20 10:52:25;;;;;;;1.60;0.38;;;24.80;99.90;;;;;;4914922;29;20091;-87
2022/08/20 10:54:51;;;;;;;2.17;0.50;;;24.80;99.90;;;;;;4914886;29;20535;-86
2022/08/20 10:57:21;;;;;;;1.23;0.50;;;25.10;99.90;;;;;;4914779;29;20024;-87
2022/08/20 10:59:49;;;;;;;8.90;0.88;;;25.40;99.90;;;;;;4913595;29;20489;-86
2022/08/20 11:02:16;;;;;;;1.58;0.60;;;25.60;99.90;;;;;;4914670;29;20035;-87
2022/08/20 11:04:42;;;;;;;1.20;0.40;;;25.30;99.90;;;;;;4914533;29;20564;-87
2022/08/20 11:07:27;;;;;;;1.80;0.50;;;25.30;99.90;;;;;;4914790;29;20044;-87
2022/08/20 11:09:53;;;;;;;3.47;0.73;;;25.40;99.90;;;;;;4914662;29;20039;-86
2022/08/20 11:12:20;;;;;;;4.93;0.95;;;25.90;99.90;;;;;;4914982;29;20036;-87
2022/08/20 11:14:46;;;;;;;2.67;0.75;;;25.70;99.90;;;;;;4915121;29;20036;-87
2022/08/20 11:17:17;;;;;;;3.33;0.80;;;25.30;99.90;;;;;;4897715;29;20035;-87
2022/08/20 11:19:43;;;;;;;3.28;0.55;;;25.40;99.90;;;;;;4886283;29;20028;-88
2022/08/20 11:22:10;;;;;;;2.08;0.77;;;25.00;99.90;;;;;;4913011;29;20028;-87
2022/08/20 11:24:37;;;;;;;1.85;0.50;;;24.90;99.90;;;;;;4914437;29;20024;-86
2022/08/20 11:27:06;;;;;;;1.20;0.30;;;24.80;99.90;;;;;;4914415;29;20040;-86
2022/08/20 11:29:32;;;;;;;3.13;0.68;;;24.80;99.90;;;;;;4897464;29;20020;-87
2022/08/20 11:31:58;;;;;;;5.30;1.95;;;24.90;99.90;;;;;;4914306;29;20067;-87
2022/08/20 11:34:23;;;;;;;3.28;1.52;;;25.20;99.90;;;;;;4914727;29;20065;-87
2022/08/20 11:36:50;;;;;;;2.33;0.50;;;25.10;99.90;;;;;;4897371;29;20092;-87
2022/08/20 11:39:16;;;;;;;3.85;0.70;;;25.00;99.90;;;;;;4895782;29;20033;-88
2022/08/20 11:41:42;;;;;;;2.38;0.80;;;25.00;99.90;;;;;;4914477;29;20047;-87
2022/08/20 11:44:07;;;;;;;1.60;0.88;;;24.70;99.90;;;;;;4898180;29;20508;-87
2022/08/20 11:46:33;;;;;;;4.13;0.88;;;24.70;99.90;;;;;;4914720;29;20056;-87
2022/08/20 11:48:59;;;;;;;1.55;0.50;;;24.90;99.90;;;;;;4914656;29;20039;-93
2022/08/20 11:51:25;;;;;;;1.60;0.40;;;24.90;99.90;;;;;;4914587;29;20532;-88
2022/08/20 11:53:51;;;;;;;1.77;0.50;;;24.90;99.90;;;;;;4914445;29;20055;-88
2022/08/20 11:56:17;;;;;;;3.08;0.52;;;25.00;99.90;;;;;;4895146;29;20433;-88
2022/08/20 11:58:43;;;;;;;3.47;0.50;;;25.30;99.90;;;;;;4914111;29;20017;-88
2022/08/20 12:01:09;;;;;;;1.60;0.50;;;25.60;99.90;;;;;;4914006;29;20039;-88
2022/08/20 12:03:35;;;;;;;2.78;0.50;;;25.80;99.90;;;;;;4915162;29;20028;-87
2022/08/20 12:06:02;;;;;;;3.28;0.60;;;25.60;99.90;;;;;;4914262;29;20051;-90
2022/08/20 12:08:28;;;;;;;2.45;0.55;;;25.50;99.90;;;;;;4914313;29;20493;-88
2022/08/20 12:10:59;;;;;;;2.58;0.50;;;25.60;99.90;;;;;;4890266;29;20033;-88
2022/08/20 12:13:29;;;;;;;0.80;0.30;;;25.70;99.90;;;;;;4915535;29;20036;-93
2022/08/20 12:15:55;;;;;;;2.95;0.52;;;26.00;99.90;;;;;;4901964;29;20024;-87
2022/08/20 12:18:21;;;;;;;2.55;0.80;;;26.20;99.90;;;;;;4917928;29;20020;-87
2022/08/20 12:20:47;;;;;;;2.30;0.93;;;26.30;99.90;;;;;;4901172;29;20112;-88
2022/08/20 12:23:12;;;;;;;2.65;1.00;;;26.60;99.90;;;;;;4917556;29;20123;-89
2022/08/20 12:25:38;;;;;;;2.60;1.60;;;26.30;99.90;;;;;;4917211;29;20481;-88
2022/08/20 12:28:04;;;;;;;2.40;1.40;;;26.10;99.90;;;;;;4917631;29;20622;-89
2022/08/20 12:30:30;;;;;;;3.63;1.58;;;26.10;99.90;;;;;;4917420;29;20024;-88
2022/08/20 12:32:56;;;;;;;2.63;1.00;;;26.00;99.90;;;;;;4917358;29;20020;-88
2022/08/20 12:35:23;;;;;;;3.85;1.50;;;25.90;99.90;;;;;;4917459;29;20056;-88
2022/08/20 12:37:49;;;;;;;2.65;1.00;;;26.10;99.90;;;;;;4917191;29;20071;-88
2022/08/20 12:40:18;;;;;;;3.50;2.00;;;26.10;99.90;;;;;;4917045;29;20031;-88
2022/08/20 12:42:44;;;;;;;3.92;2.42;;;25.90;99.90;;;;;;4917873;29;20381;-88
2022/08/20 12:45:10;;;;;;;1.30;0.52;;;26.00;99.90;;;;;;4917253;29;20482;-88
2022/08/20 12:47:39;;;;;;;1.48;0.50;;;25.80;99.90;;;;;;4917732;29;20553;-88
2022/08/20 12:50:14;;;;;;;1.80;0.47;;;25.40;99.90;;;;;;4917657;29;20035;-88
2022/08/20 12:52:40;;;;;;;2.33;0.43;;;25.10;99.90;;;;;;4917891;29;20091;-87
2022/08/20 12:55:08;;;;;;;1.58;0.40;;;25.10;99.90;;;;;;4916935;29;20084;-88